createdAt,value
2018-03-30T00:02:01.362Z,14.27
2018-03-30T00:04:28.737Z,13.90
2018-03-30T00:06:56.132Z,13.77
2018-03-30T00:09:35.268Z,13.80
2018-03-30T00:12:02.665Z,13.73
2018-03-30T00:14:30.042Z,14.53
2018-03-30T00:16:57.424Z,14.20
2018-03-30T00:19:24.809Z,14.33
2018-03-30T00:21:52.190Z,13.97
2018-03-30T00:24:19.573Z,13.80
2018-03-30T00:26:46.960Z,13.80
2018-03-30T00:29:14.328Z,14.17
2018-03-30T00:31:41.976Z,14.30
2018-03-30T00:34:09.356Z,14.27
2018-03-30T00:36:36.741Z,13.97
2018-03-30T00:39:04.129Z,14.53
2018-03-30T00:41:31.512Z,14.10
2018-03-30T00:43:58.893Z,13.90
2018-03-30T00:46:27.117Z,14.80
2018-03-30T00:48:54.508Z,14.20
2018-03-30T00:51:21.884Z,13.53
2018-03-30T00:53:49.272Z,15.20
2018-03-30T00:56:16.648Z,14.40
2018-03-30T00:58:44.036Z,14.33
2018-03-30T01:01:12.232Z,13.77
2018-03-30T01:03:39.600Z,14.93
2018-03-30T01:06:06.988Z,14.97
2018-03-30T01:08:34.363Z,14.70
2018-03-30T01:11:07.225Z,14.67
2018-03-30T01:13:34.608Z,14.73
2018-03-30T01:16:01.992Z,14.47
2018-03-30T01:18:29.373Z,14.27
2018-03-30T01:20:56.756Z,14.17
2018-03-30T01:23:24.132Z,14.77
2018-03-30T01:25:51.529Z,14.10
2018-03-30T01:28:18.911Z,15.20
2018-03-30T01:30:46.293Z,14.73
2018-03-30T01:33:13.680Z,15.90
2018-03-30T01:35:41.053Z,14.27
2018-03-30T01:38:08.444Z,15.00
2018-03-30T01:40:35.820Z,14.83
2018-03-30T01:43:03.214Z,15.30
2018-03-30T01:45:30.591Z,14.07
2018-03-30T01:47:57.976Z,14.00
2018-03-30T01:50:25.354Z,14.57
2018-03-30T01:52:52.741Z,14.27
2018-03-30T01:55:20.120Z,13.53
2018-03-30T01:57:47.513Z,15.20
2018-03-30T02:00:14.888Z,14.27
2018-03-30T02:02:42.268Z,13.53
2018-03-30T02:05:09.652Z,13.70
2018-03-30T02:07:37.036Z,14.27
2018-03-30T02:10:04.417Z,14.50
2018-03-30T02:12:31.791Z,14.03
2018-03-30T02:14:59.179Z,14.33
2018-03-30T02:17:26.561Z,13.80
2018-03-30T02:19:53.941Z,13.23
2018-03-30T02:22:21.332Z,14.47
2018-03-30T02:24:48.721Z,13.63
2018-03-30T02:27:16.103Z,15.67
2018-03-30T02:29:43.486Z,14.90
2018-03-30T02:32:10.889Z,14.27
2018-03-30T02:34:38.273Z,14.53
2018-03-30T02:37:05.656Z,14.30
2018-03-30T02:39:33.036Z,13.50
2018-03-30T02:42:00.473Z,14.23
2018-03-30T02:44:27.869Z,15.17
2018-03-30T02:46:55.235Z,13.83
2018-03-30T02:49:22.608Z,14.17
2018-03-30T02:51:49.997Z,14.00
2018-03-30T02:54:17.368Z,14.43
2018-03-30T02:56:44.754Z,14.40
2018-03-30T02:59:12.132Z,14.70
2018-03-30T03:01:39.517Z,14.20
2018-03-30T03:04:06.901Z,13.90
2018-03-30T03:06:34.277Z,14.17
2018-03-30T03:09:01.685Z,14.20
2018-03-30T03:11:29.069Z,13.60
2018-03-30T03:13:56.448Z,14.17
2018-03-30T03:16:23.840Z,13.90
2018-03-30T03:18:51.233Z,14.90
2018-03-30T03:21:18.614Z,14.80
2018-03-30T03:23:45.992Z,14.27
2018-03-30T03:26:13.373Z,14.00
2018-03-30T03:28:40.753Z,14.47
2018-03-30T03:31:08.512Z,14.50
2018-03-30T03:33:35.900Z,14.30
2018-03-30T03:38:37.049Z,13.70
2018-03-30T03:41:04.427Z,14.60
2018-03-30T03:43:31.825Z,14.50
2018-03-30T03:45:59.204Z,14.93
2018-03-30T03:48:26.588Z,15.27
2018-03-30T03:50:53.963Z,14.23
2018-03-30T03:53:21.348Z,14.47
2018-03-30T03:55:48.728Z,14.23
2018-03-30T03:58:16.120Z,14.33
2018-03-30T04:00:43.501Z,14.60
2018-03-30T04:03:10.880Z,15.27
2018-03-30T04:05:38.265Z,14.77
2018-03-30T04:08:05.640Z,14.97
2018-03-30T04:10:33.028Z,15.50
2018-03-30T04:13:00.411Z,14.80
2018-03-30T04:15:27.796Z,15.30
2018-03-30T04:17:55.185Z,15.20
2018-03-30T04:20:22.567Z,15.73
2018-03-30T04:22:49.945Z,14.70
2018-03-30T04:25:17.325Z,14.30
2018-03-30T04:27:44.711Z,14.87
2018-03-30T04:30:12.088Z,14.80
2018-03-30T04:32:39.476Z,14.53
2018-03-30T04:35:06.852Z,14.33
2018-03-30T04:37:34.243Z,14.90
2018-03-30T04:40:01.620Z,14.93
2018-03-30T04:42:29.004Z,14.53
2018-03-30T04:44:56.396Z,14.43
2018-03-30T04:47:24.188Z,14.73
2018-03-30T04:49:51.568Z,14.00
2018-03-30T04:52:19.006Z,14.20
2018-03-30T04:54:46.336Z,13.50
2018-03-30T04:57:13.716Z,14.97
2018-03-30T04:59:41.109Z,13.87
2018-03-30T05:02:08.496Z,14.40
2018-03-30T05:04:35.893Z,14.77
2018-03-30T05:07:03.277Z,14.63
2018-03-30T05:09:30.667Z,15.50
2018-03-30T05:11:58.041Z,15.10
2018-03-30T05:14:25.420Z,13.87
2018-03-30T05:16:52.809Z,15.17
2018-03-30T05:19:20.195Z,14.63
2018-03-30T05:21:47.572Z,15.30
2018-03-30T05:24:15.666Z,14.33
2018-03-30T05:26:43.956Z,14.23
2018-03-30T05:29:11.335Z,14.80
2018-03-30T05:31:38.721Z,14.17
2018-03-30T05:34:06.096Z,13.67
2018-03-30T05:36:33.492Z,13.73
2018-03-30T05:39:00.872Z,14.57
2018-03-30T05:41:28.261Z,14.57
2018-03-30T05:43:55.648Z,14.80
2018-03-30T05:46:23.036Z,14.70
2018-03-30T05:48:50.420Z,14.90
2018-03-30T05:51:17.804Z,14.73
2018-03-30T05:53:45.180Z,14.40
2018-03-30T05:56:12.560Z,13.37
2018-03-30T05:58:39.949Z,13.93
2018-03-30T06:01:07.331Z,13.93
2018-03-30T06:03:34.725Z,13.67
2018-03-30T06:06:02.097Z,14.20
2018-03-30T06:08:29.496Z,14.10
2018-03-30T06:10:56.881Z,14.37
2018-03-30T06:13:24.307Z,13.60
2018-03-30T06:15:51.664Z,13.77
2018-03-30T06:18:19.052Z,13.70
2018-03-30T06:20:45.722Z,14.20
2018-03-30T06:23:13.104Z,13.90
2018-03-30T06:25:40.493Z,13.27
2018-03-30T06:28:07.872Z,13.90
2018-03-30T06:30:35.263Z,14.37
2018-03-30T06:33:02.643Z,13.57
2018-03-30T06:35:30.036Z,14.00
2018-03-30T06:37:57.411Z,13.67
2018-03-30T06:40:24.850Z,13.97
2018-03-30T06:42:52.224Z,13.80
2018-03-30T06:45:19.609Z,13.93
2018-03-30T06:47:46.995Z,13.97
2018-03-30T06:50:14.376Z,14.40
2018-03-30T06:52:41.772Z,13.60
2018-03-30T06:55:09.144Z,14.20
2018-03-30T06:57:36.528Z,14.20
2018-03-30T07:00:03.920Z,13.43
2018-03-30T07:02:31.310Z,14.23
2018-03-30T07:04:58.689Z,14.23
2018-03-30T07:07:26.088Z,14.20
2018-03-30T07:09:53.456Z,14.30
2018-03-30T07:12:20.836Z,13.93
2018-03-30T07:14:48.220Z,14.97
2018-03-30T07:17:15.600Z,14.23
2018-03-30T07:19:42.984Z,14.07
2018-03-30T07:22:10.360Z,12.93
2018-03-30T07:24:37.743Z,13.93
2018-03-30T07:27:05.121Z,13.60
2018-03-30T07:29:32.516Z,12.97
2018-03-30T07:31:59.893Z,14.90
2018-03-30T07:34:27.277Z,14.43
2018-03-30T07:36:54.657Z,14.07
2018-03-30T07:39:22.085Z,14.50
2018-03-30T07:41:49.429Z,14.17
2018-03-30T07:44:16.805Z,13.07
2018-03-30T07:46:44.190Z,14.07
2018-03-30T07:49:11.571Z,15.00
2018-03-30T07:51:38.949Z,13.93
2018-03-30T07:54:06.337Z,14.90
2018-03-30T07:56:33.721Z,14.50
2018-03-30T07:59:01.108Z,13.90
2018-03-30T08:01:28.500Z,14.17
2018-03-30T08:03:55.880Z,14.50
2018-03-30T08:06:23.265Z,13.50
2018-03-30T08:08:50.654Z,13.80
2018-03-30T08:11:18.036Z,14.40
2018-03-30T08:13:45.433Z,13.50
2018-03-30T08:16:12.812Z,13.47
2018-03-30T08:18:40.581Z,13.50
2018-03-30T08:21:07.980Z,13.90
2018-03-30T08:23:35.357Z,13.07
2018-03-30T08:26:02.746Z,14.17
2018-03-30T08:28:30.133Z,13.60
2018-03-30T08:30:57.515Z,12.90
2018-03-30T08:33:24.908Z,13.00
2018-03-30T08:35:52.355Z,12.23
2018-03-30T08:38:19.745Z,14.10
2018-03-30T08:40:47.151Z,12.50
2018-03-30T08:43:14.516Z,13.47
2018-03-30T08:45:41.906Z,13.00
2018-03-30T08:48:09.289Z,12.97
2018-03-30T08:50:36.683Z,13.37
2018-03-30T08:53:04.080Z,13.07
2018-03-30T08:55:31.468Z,13.13
2018-03-30T08:57:58.852Z,12.90
2018-03-30T09:00:26.260Z,12.40
2018-03-30T09:02:53.640Z,13.03
2018-03-30T09:05:21.036Z,12.33
2018-03-30T09:07:48.423Z,12.10
2018-03-30T09:10:15.801Z,11.40
2018-03-30T09:12:43.192Z,12.67
2018-03-30T09:15:10.576Z,10.90
2018-03-30T09:17:37.971Z,11.60
2018-03-30T09:20:05.362Z,10.70
2018-03-30T09:22:32.741Z,10.30
2018-03-30T09:25:00.128Z,10.73
2018-03-30T09:27:27.516Z,11.27
2018-03-30T09:29:54.896Z,11.00
2018-03-30T09:32:22.301Z,11.40
2018-03-30T09:34:49.669Z,11.07
2018-03-30T09:37:17.048Z,10.67
2018-03-30T09:39:44.435Z,10.27
2018-03-30T09:42:11.830Z,10.30
2018-03-30T09:44:39.205Z,9.90
2018-03-30T09:47:06.609Z,10.60
2018-03-30T09:49:33.997Z,9.93
2018-03-30T09:52:01.373Z,9.83
2018-03-30T09:54:28.748Z,9.07
2018-03-30T09:56:56.132Z,9.40
2018-03-30T09:59:23.507Z,9.90
2018-03-30T10:01:51.685Z,9.10
2018-03-30T10:04:23.012Z,8.93
2018-03-30T10:06:50.356Z,9.30
2018-03-30T10:09:17.732Z,9.03
2018-03-30T10:11:45.131Z,9.10
2018-03-30T10:14:12.508Z,9.37
2018-03-30T10:16:39.881Z,8.90
2018-03-30T10:19:07.260Z,9.20
2018-03-30T10:21:34.649Z,9.03
2018-03-30T10:24:02.040Z,9.17
2018-03-30T10:26:29.420Z,9.47
2018-03-30T10:28:56.809Z,9.90
2018-03-30T10:31:24.197Z,9.53
2018-03-30T10:33:51.585Z,10.30
2018-03-30T10:36:18.972Z,10.03
2018-03-30T10:38:46.352Z,9.80
2018-03-30T10:41:13.730Z,9.20
2018-03-30T10:43:41.122Z,9.00
2018-03-30T10:46:08.501Z,9.40
2018-03-30T10:48:35.893Z,9.20
2018-03-30T10:51:03.281Z,9.20
2018-03-30T10:53:30.662Z,9.20
2018-03-30T10:55:58.044Z,9.50
2018-03-30T10:58:25.425Z,8.70
2018-03-30T11:00:52.821Z,9.40
2018-03-30T11:03:20.199Z,8.60
2018-03-30T11:05:47.588Z,9.53
2018-03-30T11:08:14.965Z,9.43
2018-03-30T11:10:42.372Z,9.30
2018-03-30T11:13:09.761Z,9.53
2018-03-30T11:15:37.138Z,9.30
2018-03-30T11:18:04.577Z,9.10
2018-03-30T11:20:31.901Z,8.70
2018-03-30T11:22:59.287Z,9.77
2018-03-30T11:25:26.661Z,9.70
2018-03-30T11:27:54.060Z,9.57
2018-03-30T11:30:21.440Z,10.97
2018-03-30T11:32:48.836Z,10.10
2018-03-30T11:35:16.233Z,9.20
2018-03-30T11:37:43.617Z,9.50
2018-03-30T11:40:10.999Z,9.07
2018-03-30T11:42:38.389Z,10.10
2018-03-30T11:45:05.773Z,9.77
2018-03-30T11:47:33.154Z,8.73
2018-03-30T11:50:00.547Z,8.53
2018-03-30T11:52:27.925Z,8.60
2018-03-30T11:54:55.313Z,8.50
2018-03-30T11:57:22.698Z,9.03
2018-03-30T11:59:50.076Z,9.10
2018-03-30T12:02:17.466Z,8.77
2018-03-30T12:04:44.857Z,9.00
2018-03-30T12:07:12.271Z,8.60
2018-03-30T12:09:39.638Z,8.50
2018-03-30T12:12:07.019Z,9.10
2018-03-30T12:14:34.398Z,8.83
2018-03-30T12:17:01.781Z,9.30
2018-03-30T12:19:29.187Z,8.50
2018-03-30T12:21:56.560Z,8.70
2018-03-30T12:24:23.936Z,9.07
2018-03-30T12:26:51.367Z,9.50
2018-03-30T12:29:18.705Z,9.50
2018-03-30T12:31:46.081Z,8.33
2018-03-30T12:34:13.594Z,8.90
2018-03-30T12:36:40.969Z,9.43
2018-03-30T12:39:08.360Z,9.90
2018-03-30T12:41:35.777Z,9.37
2018-03-30T12:44:03.524Z,9.40
2018-03-30T12:46:30.922Z,9.30
2018-03-30T12:48:58.355Z,8.50
2018-03-30T12:51:25.768Z,9.33
2018-03-30T12:53:53.144Z,8.93
2018-03-30T12:56:20.533Z,9.53
2018-03-30T12:58:47.915Z,9.30
2018-03-30T13:01:15.326Z,9.07
2018-03-30T13:03:42.733Z,9.23
2018-03-30T13:06:10.167Z,10.00
2018-03-30T13:08:37.492Z,9.80
2018-03-30T13:11:04.916Z,9.10
2018-03-30T13:13:32.304Z,9.40
2018-03-30T13:15:59.694Z,9.60
2018-03-30T13:18:27.068Z,9.03
2018-03-30T13:20:54.453Z,9.77
2018-03-30T13:23:22.023Z,9.67
2018-03-30T13:25:49.384Z,9.50
2018-03-30T13:28:16.764Z,9.60
2018-03-30T13:30:44.144Z,9.67
2018-03-30T13:33:11.524Z,9.10
2018-03-30T13:35:38.904Z,10.57
2018-03-30T13:38:06.548Z,9.20
2018-03-30T13:40:33.936Z,10.30
2018-03-30T13:43:01.309Z,9.90
2018-03-30T13:45:28.696Z,10.20
2018-03-30T13:47:56.077Z,9.97
2018-03-30T13:50:27.905Z,10.30
2018-03-30T13:52:57.080Z,9.80
2018-03-30T13:55:24.456Z,9.10
2018-03-30T13:57:51.832Z,9.30
2018-03-30T14:00:28.708Z,9.60
2018-03-30T14:03:15.696Z,9.97
2018-03-30T14:05:53.752Z,9.40
2018-03-30T14:08:28.626Z,9.70
2018-03-30T14:11:13.560Z,9.60
2018-03-30T14:13:40.933Z,9.03
2018-03-30T14:16:11.049Z,9.97
2018-03-30T14:18:40.881Z,8.90
2018-03-30T14:21:15.757Z,9.10
2018-03-30T14:23:43.076Z,8.50
2018-03-30T14:26:13.767Z,9.37
2018-03-30T14:28:42.692Z,9.30
2018-03-30T14:31:14.704Z,8.70
2018-03-30T14:33:42.084Z,8.90
2018-03-30T14:36:10.893Z,9.00
2018-03-30T14:38:52.986Z,10.17
2018-03-30T14:41:20.364Z,9.00
2018-03-30T14:43:47.746Z,9.70
2018-03-30T14:46:16.033Z,9.50
2018-03-30T14:48:44.192Z,9.73
2018-03-30T14:51:35.150Z,9.13
2018-03-30T14:54:07.996Z,9.50
2018-03-30T14:56:40.091Z,9.27
2018-03-30T14:59:07.455Z,9.30
2018-03-30T15:01:36.753Z,9.90
2018-03-30T15:07:15.965Z,9.80
2018-03-30T15:09:47.040Z,9.13
2018-03-30T15:15:18.544Z,9.43
2018-03-30T15:17:47.712Z,8.90
2018-03-30T15:20:19.624Z,9.00
2018-03-30T15:22:49.448Z,9.00
2018-03-30T15:25:33.377Z,8.70
2018-03-30T15:28:01.425Z,8.70
2018-03-30T15:33:41.195Z,8.73
2018-03-30T15:36:24.343Z,8.87
2018-03-30T15:38:51.732Z,8.83
2018-03-30T15:41:19.108Z,8.30
2018-03-30T15:43:47.281Z,9.13
2018-03-30T15:46:19.145Z,8.73
2018-03-30T15:48:46.516Z,8.57
2018-03-30T15:51:17.449Z,10.57
2018-03-30T15:53:44.291Z,9.40
2018-03-30T15:56:12.540Z,9.60
2018-03-30T15:58:39.917Z,9.70
2018-03-30T16:01:07.292Z,9.40
2018-03-30T16:03:34.672Z,9.27
2018-03-30T16:06:02.060Z,9.10
2018-03-30T16:08:29.448Z,8.83
2018-03-30T16:10:59.144Z,8.77
2018-03-30T16:13:26.536Z,7.77
2018-03-30T16:15:53.912Z,9.27
2018-03-30T16:18:21.289Z,9.07
2018-03-30T16:20:48.133Z,9.00
2018-03-30T16:23:14.985Z,8.73
2018-03-30T16:25:41.816Z,9.13
2018-03-30T16:28:08.652Z,9.00
2018-03-30T16:30:35.768Z,8.67
2018-03-30T16:33:02.605Z,9.50
2018-03-30T16:35:29.440Z,8.83
2018-03-30T16:37:56.282Z,9.47
2018-03-30T16:40:23.117Z,9.70
2018-03-30T16:42:49.962Z,9.17
2018-03-30T16:45:16.793Z,9.13
2018-03-30T16:47:43.652Z,8.30
2018-03-30T16:50:10.488Z,9.27
2018-03-30T16:52:37.324Z,8.90
2018-03-30T16:55:04.164Z,8.90
2018-03-30T16:57:31.024Z,9.00
2018-03-30T16:59:57.869Z,8.83
2018-03-30T17:02:24.704Z,9.93
2018-03-30T17:04:51.839Z,9.70
2018-03-30T17:07:18.653Z,10.03
2018-03-30T17:09:45.488Z,10.00
2018-03-30T17:12:12.341Z,9.83
2018-03-30T17:14:39.190Z,10.50
2018-03-30T17:17:06.025Z,9.60
2018-03-30T17:19:32.861Z,9.20
2018-03-30T17:21:59.763Z,9.53
2018-03-30T17:24:26.545Z,9.30
2018-03-30T17:26:53.381Z,9.47
2018-03-30T17:29:20.221Z,9.03
2018-03-30T17:31:47.060Z,9.50
2018-03-30T17:34:13.966Z,8.57
2018-03-30T17:36:42.181Z,8.60
2018-03-30T17:39:09.031Z,8.80
2018-03-30T17:41:35.865Z,9.27
2018-03-30T17:44:02.701Z,9.60
2018-03-30T17:46:29.557Z,9.50
2018-03-30T17:48:56.399Z,9.67
2018-03-30T17:51:23.248Z,9.67
2018-03-30T17:53:50.080Z,9.00
2018-03-30T17:56:16.929Z,10.40
2018-03-30T17:58:43.820Z,10.70
2018-03-30T18:01:10.670Z,10.00
2018-03-30T18:03:37.512Z,10.43
2018-03-30T18:06:04.356Z,10.53
2018-03-30T18:08:31.200Z,11.47
2018-03-30T18:10:58.072Z,10.20
2018-03-30T18:13:24.946Z,11.20
2018-03-30T18:15:53.372Z,10.97
2018-03-30T18:18:20.245Z,11.80
2018-03-30T18:20:47.072Z,12.30
2018-03-30T18:23:14.932Z,12.33
2018-03-30T18:25:42.500Z,13.30
2018-03-30T18:28:09.336Z,13.30
2018-03-30T18:30:36.192Z,13.20
2018-03-30T18:33:03.472Z,13.87
2018-03-30T18:35:30.307Z,13.03
2018-03-30T18:37:57.160Z,13.20
2018-03-30T18:40:24.024Z,13.20
2018-03-30T18:42:50.885Z,14.10
2018-03-30T18:45:17.751Z,13.63
2018-03-30T18:47:44.640Z,13.80
2018-03-30T18:50:11.468Z,13.87
2018-03-30T18:52:38.315Z,14.00
2018-03-30T18:55:05.156Z,12.57
2018-03-30T18:57:31.994Z,13.80
2018-03-30T18:59:58.840Z,13.17
2018-03-30T19:02:25.688Z,13.40
2018-03-30T19:04:52.555Z,13.90
2018-03-30T19:07:19.397Z,14.60
2018-03-30T19:09:46.248Z,13.37
2018-03-30T19:12:13.100Z,14.27
2018-03-30T19:14:39.940Z,15.13
2018-03-30T19:17:06.788Z,13.43
2018-03-30T19:19:33.640Z,13.70
2018-03-30T19:22:00.504Z,13.40
2018-03-30T19:24:27.356Z,14.47
2018-03-30T19:26:54.192Z,13.90
2018-03-30T19:29:21.037Z,14.30
2018-03-30T19:31:47.881Z,15.10
2018-03-30T19:34:14.724Z,13.80
2018-03-30T19:36:41.566Z,14.10
2018-03-30T19:39:08.437Z,15.03
2018-03-30T19:41:35.279Z,14.57
2018-03-30T19:44:02.121Z,13.20
2018-03-30T19:46:28.964Z,15.03
2018-03-30T19:48:55.804Z,13.63
2018-03-30T19:51:22.649Z,13.10
2018-03-30T19:53:49.508Z,12.87
2018-03-30T19:56:16.360Z,12.93
2018-03-30T19:58:43.204Z,13.60
2018-03-30T20:01:10.049Z,13.83
2018-03-30T20:03:36.900Z,16.73
2018-03-30T20:06:03.741Z,16.27
2018-03-30T20:08:30.587Z,15.03
2018-03-30T20:10:57.433Z,15.07
2018-03-30T20:13:24.288Z,15.33
2018-03-30T20:15:51.142Z,15.07
2018-03-30T20:18:17.986Z,14.53
2018-03-30T20:20:44.828Z,14.20
2018-03-30T20:23:11.668Z,14.60
2018-03-30T20:25:38.516Z,15.20
2018-03-30T20:28:05.356Z,14.53
2018-03-30T20:30:32.208Z,14.77
2018-03-30T20:32:59.048Z,14.37
2018-03-30T20:35:25.897Z,13.70
2018-03-30T20:37:52.744Z,13.80
2018-03-30T20:40:19.579Z,14.10
2018-03-30T20:42:46.443Z,13.90
2018-03-30T20:45:13.276Z,16.00
2018-03-30T20:47:40.124Z,14.90
2018-03-30T20:50:06.965Z,14.20
2018-03-30T20:52:33.809Z,14.30
2018-03-30T20:55:00.656Z,13.33
2018-03-30T20:57:27.494Z,15.40
2018-03-30T20:59:54.340Z,15.23
2018-03-30T21:02:21.242Z,14.37
2018-03-30T21:04:48.288Z,14.70
2018-03-30T21:07:15.124Z,14.30
2018-03-30T21:09:41.974Z,14.70
2018-03-30T21:12:08.812Z,14.63
2018-03-30T21:14:35.676Z,15.13
2018-03-30T21:17:02.521Z,15.10
2018-03-30T21:19:29.359Z,15.47
2018-03-30T21:21:56.228Z,14.67
2018-03-30T21:24:23.066Z,14.70
2018-03-30T21:26:49.900Z,14.70
2018-03-30T21:29:16.817Z,15.40
2018-03-30T21:31:43.593Z,15.70
2018-03-30T21:34:10.444Z,16.00
2018-03-30T21:36:37.277Z,15.03
2018-03-30T21:39:04.120Z,14.93
2018-03-30T21:41:30.957Z,16.03
2018-03-30T21:43:57.791Z,15.87
2018-03-30T21:46:24.636Z,15.27
2018-03-30T21:48:51.488Z,15.77
2018-03-30T21:51:18.328Z,16.23
2018-03-30T21:53:45.164Z,15.53
2018-03-30T21:56:12.028Z,15.03
2018-03-30T21:58:38.860Z,14.30
2018-03-30T22:01:05.706Z,14.73
2018-03-30T22:03:32.544Z,14.47
2018-03-30T22:05:59.383Z,15.90
2018-03-30T22:08:26.226Z,15.20
2018-03-30T22:10:53.064Z,14.83
2018-03-30T22:13:19.912Z,15.57
2018-03-30T22:15:46.752Z,15.40
2018-03-30T22:18:13.584Z,14.97
2018-03-30T22:20:40.436Z,14.30
2018-03-30T22:23:07.272Z,15.03
2018-03-30T22:25:34.121Z,14.43
2018-03-30T22:28:00.960Z,15.03
2018-03-30T22:30:27.804Z,14.70
2018-03-30T22:32:54.652Z,14.70
2018-03-30T22:35:21.492Z,15.50
2018-03-30T22:37:48.341Z,14.67
2018-03-30T22:40:15.181Z,14.73
2018-03-30T22:42:42.020Z,14.73
2018-03-30T22:45:08.869Z,15.20
2018-03-30T22:47:36.016Z,14.93
2018-03-30T22:50:02.874Z,15.33
2018-03-30T22:52:29.701Z,14.93
2018-03-30T22:54:56.596Z,15.50
2018-03-30T22:57:23.456Z,14.73
2018-03-30T22:59:50.288Z,14.33
2018-03-30T23:02:17.136Z,15.20
2018-03-30T23:04:43.976Z,14.30
2018-03-30T23:07:10.824Z,14.77
2018-03-30T23:09:37.668Z,15.63
2018-03-30T23:12:04.520Z,15.43
2018-03-30T23:14:31.366Z,15.03
2018-03-30T23:16:58.197Z,14.97
2018-03-30T23:19:25.053Z,15.93
2018-03-30T23:21:51.900Z,15.60
2018-03-30T23:24:18.751Z,16.10
2018-03-30T23:26:45.584Z,15.87
2018-03-30T23:29:12.424Z,15.30
2018-03-30T23:31:39.273Z,16.00
2018-03-30T23:34:06.101Z,15.47
2018-03-30T23:36:32.940Z,15.73
2018-03-30T23:38:59.775Z,15.77
2018-03-30T23:41:26.625Z,15.97
2018-03-30T23:43:53.588Z,16.50
2018-03-30T23:46:20.449Z,15.40
2018-03-30T23:48:47.328Z,16.87
2018-03-30T23:51:14.171Z,15.83
2018-03-30T23:53:41.009Z,16.47
2018-03-30T23:56:07.851Z,15.40
2018-03-30T23:58:34.724Z,15.40
